createdAt,value
2018-08-18T03:08:46.322Z,9.20
2018-08-18T03:09:20.613Z,8.07
2018-08-18T03:09:54.543Z,8.37
2018-08-18T03:10:28.970Z,8.40
2018-08-18T03:11:03.154Z,7.87
2018-08-18T03:11:42.646Z,7.43
2018-08-18T03:12:16.635Z,8.37
2018-08-18T03:12:51.461Z,8.50
2018-08-18T03:13:26.418Z,9.10
2018-08-18T03:14:00.114Z,8.70
2018-08-18T03:14:34.084Z,8.37
2018-08-18T03:15:08.202Z,8.27
2018-08-18T03:15:57.621Z,8.33
2018-08-18T03:16:31.752Z,8.30
2018-08-18T03:17:06.132Z,7.37
2018-08-18T03:17:40.022Z,7.70
2018-08-18T03:18:13.845Z,7.70
2018-08-18T03:18:49.705Z,9.70
2018-08-18T03:19:23.586Z,8.73
2018-08-18T03:19:57.608Z,8.57
2018-08-18T03:20:31.436Z,8.03
2018-08-18T03:21:05.581Z,9.43
2018-08-18T03:21:43.667Z,8.73
2018-08-18T03:22:18.019Z,8.03
2018-08-18T03:22:51.832Z,8.33
2018-08-18T03:23:25.851Z,8.43
2018-08-18T03:24:10.611Z,8.40
2018-08-18T03:24:44.598Z,7.83
2018-08-18T03:25:18.811Z,8.33
2018-08-18T03:25:54.108Z,8.20
2018-08-18T03:27:03.305Z,8.67
2018-08-18T03:27:37.215Z,8.37
2018-08-18T03:28:11.141Z,8.27
2018-08-18T03:28:50.214Z,8.40
2018-08-18T03:29:26.193Z,8.10
2018-08-18T03:30:00.119Z,8.33
2018-08-18T03:30:33.903Z,7.67
2018-08-18T03:31:08.089Z,7.97
2018-08-18T03:31:42.312Z,8.00
2018-08-18T03:32:15.963Z,7.47
2018-08-18T03:32:49.895Z,8.30
2018-08-18T03:33:24.328Z,8.37
2018-08-18T03:33:58.187Z,8.87
2018-08-18T03:34:32.259Z,9.30
2018-08-18T03:35:06.072Z,8.90
2018-08-18T03:35:39.963Z,9.03
2018-08-18T03:36:25.816Z,8.47
2018-08-18T03:37:01.096Z,8.83
2018-08-18T03:37:35.160Z,8.33
2018-08-18T03:38:08.891Z,8.40
2018-08-18T03:38:42.683Z,8.07
2018-08-18T03:39:25.718Z,8.33
2018-08-18T03:39:59.644Z,7.77
2018-08-18T03:40:33.429Z,7.83
2018-08-18T03:41:07.221Z,7.70
2018-08-18T03:41:41.083Z,8.30
2018-08-18T03:42:14.941Z,7.83
2018-08-18T03:42:48.730Z,8.27
2018-08-18T03:43:23.579Z,7.87
2018-08-18T03:43:57.768Z,8.00
2018-08-18T03:44:33.719Z,8.07
2018-08-18T03:45:07.374Z,8.07
2018-08-18T03:45:40.981Z,7.90
2018-08-18T03:46:14.860Z,8.20
2018-08-18T03:46:48.737Z,8.40
2018-08-18T03:47:23.960Z,8.20
2018-08-18T03:47:57.831Z,8.60
2018-08-18T03:48:31.552Z,8.67
2018-08-18T03:49:05.402Z,8.37
2018-08-18T03:49:39.114Z,8.67
2018-08-18T03:50:12.892Z,8.40
2018-08-18T03:50:47.961Z,8.03
2018-08-18T03:51:30.855Z,8.20
2018-08-18T03:52:04.856Z,8.47
2018-08-18T03:52:38.647Z,8.33
2018-08-18T03:53:15.624Z,8.63
2018-08-18T03:53:49.364Z,8.13
2018-08-18T03:54:23.567Z,8.17
2018-08-18T03:54:57.264Z,8.10
2018-08-18T03:55:37.562Z,8.27
2018-08-18T03:56:11.392Z,8.77
2018-08-18T03:56:45.653Z,7.97
2018-08-18T03:57:19.684Z,8.17
2018-08-18T03:57:53.980Z,8.10
2018-08-18T03:58:32.467Z,8.07
2018-08-18T03:59:06.188Z,8.07
2018-08-18T03:59:39.971Z,7.63
2018-08-18T04:00:14.840Z,8.37
2018-08-18T04:00:48.660Z,8.10
2018-08-18T04:01:36.946Z,8.30
2018-08-18T04:02:10.757Z,7.67
2018-08-18T04:02:44.452Z,7.37
2018-08-18T04:03:18.352Z,8.60
2018-08-18T04:03:52.754Z,9.67
2018-08-18T04:04:34.335Z,8.23
2018-08-18T04:05:09.314Z,7.93
2018-08-18T04:05:43.140Z,7.90
2018-08-18T04:06:16.827Z,7.53
2018-08-18T04:06:52.059Z,7.77
2018-08-18T04:07:26.211Z,8.30
2018-08-18T04:08:00.270Z,7.73
2018-08-18T04:08:33.998Z,7.57
2018-08-18T04:09:11.841Z,7.07
2018-08-18T04:09:45.590Z,7.50
2018-08-18T04:10:19.416Z,7.20
2018-08-18T04:10:53.249Z,7.77
2018-08-18T04:11:27.527Z,7.60
2018-08-18T04:12:02.877Z,7.63
2018-08-18T04:12:36.691Z,7.93
2018-08-18T04:13:10.489Z,7.93
2018-08-18T04:13:44.323Z,7.43
2018-08-18T04:14:20.125Z,7.57
2018-08-18T04:14:54.034Z,8.57
2018-08-18T04:15:28.012Z,8.00
2018-08-18T04:16:01.808Z,7.90
2018-08-18T04:16:39.310Z,8.40
2018-08-18T04:17:24.703Z,8.40
2018-08-18T04:18:03.344Z,7.87
2018-08-18T04:18:37.082Z,8.17
2018-08-18T04:19:10.777Z,8.77
2018-08-18T04:19:45.994Z,8.97
2018-08-18T04:20:20.008Z,9.10
2018-08-18T04:20:53.693Z,9.13
2018-08-18T04:21:28.063Z,9.60
2018-08-18T04:22:01.979Z,10.00
2018-08-18T04:22:35.784Z,8.57
2018-08-18T04:23:09.608Z,9.20
2018-08-18T04:23:43.927Z,9.50
2018-08-18T04:24:17.809Z,9.03
2018-08-18T04:24:51.606Z,8.17
2018-08-18T04:25:25.488Z,8.83
2018-08-18T04:25:59.400Z,9.80
2018-08-18T04:26:33.115Z,9.70
2018-08-18T04:27:06.836Z,8.83
2018-08-18T04:27:43.561Z,8.70
2018-08-18T04:28:17.258Z,8.50
2018-08-18T04:28:51.080Z,8.23
2018-08-18T04:29:24.993Z,9.03
2018-08-18T04:29:58.975Z,8.30
2018-08-18T04:30:32.851Z,8.40
2018-08-18T04:31:06.991Z,8.60
2018-08-18T04:31:40.859Z,8.40
2018-08-18T04:32:14.719Z,8.83
2018-08-18T04:32:58.176Z,8.00
2018-08-18T04:33:32.115Z,7.87
2018-08-18T04:34:07.290Z,8.17
2018-08-18T04:34:41.191Z,7.93
2018-08-18T04:35:14.874Z,8.57
2018-08-18T04:35:53.307Z,7.90
2018-08-18T04:36:27.238Z,7.70
2018-08-18T04:37:01.785Z,8.10
2018-08-18T04:37:35.643Z,7.77
2018-08-18T04:38:09.490Z,7.30
2018-08-18T04:38:43.502Z,7.97
2018-08-18T04:39:17.361Z,9.17
2018-08-18T04:39:51.264Z,8.23
2018-08-18T04:40:25.300Z,8.10
2018-08-18T04:40:59.285Z,8.77
2018-08-18T04:41:33.417Z,8.60
2018-08-18T04:42:07.686Z,7.70
2018-08-18T04:42:41.853Z,8.17
2018-08-18T04:43:15.849Z,9.40
2018-08-18T04:43:49.986Z,8.73
2018-08-18T04:44:23.776Z,7.97
2018-08-18T04:44:57.733Z,8.77
2018-08-18T04:45:31.663Z,8.60
2018-08-18T04:46:05.718Z,7.90
2018-08-18T04:46:39.501Z,8.87
2018-08-18T04:47:29.769Z,8.83
2018-08-18T04:48:03.808Z,8.57
2018-08-18T04:48:37.520Z,9.70
2018-08-18T04:49:11.352Z,8.63
2018-08-18T04:49:45.397Z,8.53
2018-08-18T04:50:20.116Z,8.87
2018-08-18T04:50:53.755Z,8.20
2018-08-18T04:51:27.796Z,8.83
2018-08-18T04:52:01.891Z,8.23
2018-08-18T04:52:35.790Z,8.00
2018-08-18T04:53:09.608Z,8.57
2018-08-18T04:53:43.457Z,9.40
2018-08-18T04:54:17.188Z,8.37
2018-08-18T04:54:50.851Z,7.97
2018-08-18T04:55:24.650Z,8.43
2018-08-18T04:55:58.544Z,8.80
2018-08-18T04:56:32.704Z,8.60
2018-08-18T04:57:06.631Z,8.70
2018-08-18T04:57:40.358Z,8.53
2018-08-18T04:58:14.318Z,9.13
2018-08-18T04:58:48.172Z,8.23
2018-08-18T04:59:22.947Z,9.53
2018-08-18T04:59:57.652Z,8.70
2018-08-18T05:00:31.443Z,8.20
2018-08-18T05:01:05.503Z,9.13
2018-08-18T05:01:40.145Z,8.70
2018-08-18T05:02:14.236Z,8.80
2018-08-18T05:02:56.033Z,8.60
2018-08-18T05:03:29.867Z,8.83
2018-08-18T05:04:07.982Z,8.87
2018-08-18T05:04:41.621Z,8.57
2018-08-18T05:05:17.592Z,8.30
2018-08-18T05:05:51.418Z,8.97
2018-08-18T05:06:26.872Z,8.10
2018-08-18T05:07:00.646Z,8.07
2018-08-18T05:07:39.050Z,9.00
2018-08-18T05:08:12.875Z,9.07
2018-08-18T05:08:46.825Z,8.87
2018-08-18T05:09:20.728Z,8.40
2018-08-18T05:09:54.657Z,8.20
2018-08-18T05:10:29.047Z,7.70
2018-08-18T05:11:02.834Z,8.20
2018-08-18T05:11:36.927Z,8.60
2018-08-18T05:12:10.792Z,8.30
2018-08-18T05:12:44.615Z,8.87
2018-08-18T05:13:18.397Z,7.90
2018-08-18T05:13:52.229Z,7.80
2018-08-18T05:14:26.004Z,8.27
2018-08-18T05:14:59.597Z,8.83
2018-08-18T05:15:33.366Z,7.67
2018-08-18T05:16:07.265Z,8.23
2018-08-18T05:16:40.920Z,8.10
2018-08-18T05:17:14.772Z,8.60
2018-08-18T05:17:49.776Z,7.77
2018-08-18T05:18:23.569Z,7.93
2018-08-18T05:18:57.541Z,7.97
2018-08-18T05:19:31.319Z,7.50
2018-08-18T05:20:11.051Z,7.97
2018-08-18T05:20:45.415Z,7.37
2018-08-18T05:21:21.148Z,7.70
2018-08-18T05:21:54.825Z,8.07
2018-08-18T05:22:28.529Z,8.17
2018-08-18T05:23:37.780Z,7.67
2018-08-18T05:24:21.368Z,7.70
2018-08-18T05:24:55.034Z,8.70
2018-08-18T05:25:36.543Z,8.10
2018-08-18T05:26:10.520Z,7.67
2018-08-18T05:26:44.303Z,7.80
2018-08-18T05:27:19.012Z,8.07
2018-08-18T05:27:52.820Z,8.10
2018-08-18T05:28:26.620Z,8.03
2018-08-18T05:29:00.317Z,8.53
2018-08-18T05:29:34.074Z,7.77
2018-08-18T05:30:08.113Z,7.87
2018-08-18T05:30:42.483Z,8.30
2018-08-18T05:31:18.051Z,7.80
2018-08-18T05:31:51.946Z,8.03
2018-08-18T05:32:25.684Z,8.30
2018-08-18T05:32:59.465Z,7.33
2018-08-18T05:33:33.433Z,7.90
2018-08-18T05:34:07.839Z,8.30
2018-08-18T05:34:41.819Z,7.50
2018-08-18T05:35:15.603Z,8.00
2018-08-18T05:35:49.375Z,7.77
2018-08-18T05:36:23.432Z,8.20
2018-08-18T05:37:00.416Z,8.30
2018-08-18T05:37:34.253Z,7.83
2018-08-18T05:38:08.600Z,8.37
2018-08-18T05:38:43.153Z,9.40
2018-08-18T05:39:16.909Z,10.20
2018-08-18T05:39:50.759Z,10.97
2018-08-18T05:40:24.733Z,12.93
2018-08-18T05:40:58.429Z,13.73
2018-08-18T05:41:33.390Z,14.20
2018-08-18T05:42:07.434Z,15.27
2018-08-18T05:42:41.299Z,15.13
2018-08-18T05:43:15.193Z,16.60
2018-08-18T05:43:49.353Z,16.03
2018-08-18T05:44:23.140Z,16.67
2018-08-18T05:44:56.959Z,17.30
2018-08-18T05:45:32.891Z,20.80
2018-08-18T05:46:06.889Z,21.53
2018-08-18T05:46:40.881Z,21.37
2018-08-18T05:47:15.057Z,21.87
2018-08-18T05:47:49.813Z,20.30
2018-08-18T05:48:23.411Z,21.60
2018-08-18T05:49:01.892Z,22.30
2018-08-18T05:49:35.738Z,23.37
2018-08-18T05:50:09.569Z,25.07
2018-08-18T05:50:43.506Z,24.50
2018-08-18T05:51:17.428Z,25.40
2018-08-18T05:51:52.253Z,24.07
2018-08-18T05:52:26.074Z,23.77
2018-08-18T05:53:15.338Z,24.60
2018-08-18T05:53:49.303Z,24.20
2018-08-18T05:54:26.968Z,22.07
2018-08-18T05:55:00.776Z,19.93
2018-08-18T05:55:34.668Z,17.07
2018-08-18T05:56:08.396Z,17.03
2018-08-18T05:56:43.735Z,13.80
2018-08-18T05:57:17.779Z,14.60
2018-08-18T05:57:51.765Z,12.90
2018-08-18T05:58:25.622Z,11.57
2018-08-18T05:58:59.444Z,11.93
2018-08-18T05:59:34.209Z,11.63
2018-08-18T06:00:13.626Z,11.83
2018-08-18T06:00:48.492Z,12.03
2018-08-18T06:01:27.189Z,11.37
2018-08-18T06:02:00.867Z,11.03
2018-08-18T06:02:36.148Z,10.80
2018-08-18T06:03:09.814Z,10.37
2018-08-18T06:03:43.862Z,10.93
2018-08-18T06:04:19.673Z,10.53
2018-08-18T06:04:53.440Z,11.17
2018-08-18T06:05:29.491Z,10.83
2018-08-18T06:06:03.281Z,10.90
2018-08-18T06:06:37.544Z,11.33
2018-08-18T06:07:11.268Z,10.47
2018-08-18T06:07:46.904Z,11.53
2018-08-18T06:08:21.631Z,10.73
2018-08-18T06:08:55.660Z,11.17
2018-08-18T06:09:29.829Z,10.57
2018-08-18T06:10:04.252Z,10.17
2018-08-18T06:10:38.135Z,10.23
2018-08-18T06:11:12.706Z,9.77
2018-08-18T06:11:47.115Z,10.33
2018-08-18T06:12:21.098Z,10.03
2018-08-18T06:12:55.816Z,9.80
2018-08-18T06:13:29.759Z,10.20
2018-08-18T06:14:04.125Z,9.37
2018-08-18T06:14:53.749Z,9.63
2018-08-18T06:15:27.533Z,8.87
2018-08-18T06:16:10.011Z,9.87
2018-08-18T06:16:44.493Z,9.43
2018-08-18T06:17:23.854Z,9.43
2018-08-18T06:17:57.824Z,9.80
2018-08-18T06:18:31.899Z,9.27
2018-08-18T06:19:05.731Z,9.90
2018-08-18T06:19:39.647Z,9.03
2018-08-18T06:20:13.551Z,10.13
2018-08-18T06:20:47.721Z,9.03
2018-08-18T06:21:21.646Z,9.43
2018-08-18T06:21:55.484Z,9.57
2018-08-18T06:22:29.253Z,9.47
2018-08-18T06:23:03.015Z,9.20
2018-08-18T06:23:37.826Z,8.80
2018-08-18T06:24:11.631Z,8.43
2018-08-18T06:24:45.903Z,9.37
2018-08-18T06:25:20.038Z,8.30
2018-08-18T06:25:54.049Z,9.10
2018-08-18T06:26:28.244Z,8.70
2018-08-18T06:27:02.232Z,9.83
2018-08-18T06:27:36.110Z,9.33
2018-08-18T06:28:09.946Z,9.37
2018-08-18T06:28:43.860Z,8.97
2018-08-18T06:29:18.057Z,8.27
2018-08-18T06:29:52.451Z,8.43
2018-08-18T06:30:26.289Z,9.00
2018-08-18T06:31:00.140Z,8.27
2018-08-18T06:31:41.842Z,8.70
2018-08-18T06:32:15.506Z,8.13
2018-08-18T06:32:49.661Z,8.30
2018-08-18T06:33:24.022Z,8.03
2018-08-18T06:33:57.865Z,9.13
2018-08-18T06:34:33.411Z,8.07
2018-08-18T06:35:07.385Z,7.80
2018-08-18T06:35:41.118Z,8.10
2018-08-18T06:36:15.070Z,7.50
2018-08-18T06:36:49.517Z,7.43
2018-08-18T06:37:23.672Z,7.20
2018-08-18T06:37:59.408Z,7.37
2018-08-18T06:38:33.608Z,7.77
2018-08-18T06:39:07.360Z,7.80
2018-08-18T06:39:54.371Z,7.63
2018-08-18T06:40:29.317Z,7.30
2018-08-18T06:41:03.552Z,7.00
2018-08-18T06:41:37.766Z,7.77
2018-08-18T06:42:22.835Z,7.40
2018-08-18T06:42:56.692Z,7.17
2018-08-18T06:43:34.293Z,7.00
2018-08-18T06:44:08.274Z,7.87
2018-08-18T06:44:42.256Z,7.00
2018-08-18T06:45:17.297Z,7.17
2018-08-18T06:45:51.494Z,7.63
2018-08-18T06:46:25.424Z,6.90
2018-08-18T06:46:59.468Z,7.57
2018-08-18T06:47:33.389Z,7.50
2018-08-18T06:48:17.724Z,7.57
2018-08-18T06:48:51.856Z,7.50
2018-08-18T06:49:25.923Z,7.57
2018-08-18T06:49:59.753Z,8.33
2018-08-18T06:50:39.340Z,7.73
2018-08-18T06:51:13.341Z,6.90
2018-08-18T06:51:47.066Z,7.80
2018-08-18T06:52:21.288Z,7.20
2018-08-18T06:52:55.737Z,6.90
2018-08-18T06:53:34.432Z,7.83
2018-08-18T06:54:08.746Z,8.20
2018-08-18T06:54:42.504Z,7.87
2018-08-18T06:55:20.160Z,7.53
2018-08-18T06:55:55.617Z,8.23
2018-08-18T06:56:29.448Z,7.77
2018-08-18T06:57:03.554Z,7.70
2018-08-18T06:57:42.834Z,7.93
2018-08-18T06:58:16.513Z,8.03
2018-08-18T06:58:50.752Z,7.97
2018-08-18T06:59:25.013Z,7.87
2018-08-18T07:00:06.412Z,8.27
2018-08-18T07:00:40.852Z,8.10
2018-08-18T07:01:14.498Z,7.50
2018-08-18T07:01:48.380Z,8.40
2018-08-18T07:02:24.366Z,8.70
2018-08-18T07:02:58.372Z,8.60
2018-08-18T07:03:35.941Z,7.80
2018-08-18T07:04:14.350Z,7.70
2018-08-18T07:04:48.339Z,7.80
2018-08-18T07:05:22.288Z,8.03
2018-08-18T07:05:57.293Z,7.10
2018-08-18T07:06:31.200Z,7.70
2018-08-18T07:07:05.134Z,6.90
2018-08-18T07:07:39.001Z,7.37
2018-08-18T07:08:12.829Z,7.00
2018-08-18T07:08:53.628Z,7.07
2018-08-18T07:09:27.987Z,7.13
2018-08-18T07:10:20.947Z,7.33
2018-08-18T07:10:55.518Z,7.50
2018-08-18T07:11:29.430Z,7.13
2018-08-18T07:12:03.510Z,7.73
2018-08-18T07:12:37.727Z,7.50
2018-08-18T07:13:11.624Z,7.47
2018-08-18T07:13:46.144Z,7.57
2018-08-18T07:14:19.944Z,6.57
2018-08-18T07:15:04.080Z,7.50
2018-08-18T07:15:40.441Z,7.00
2018-08-18T07:16:14.381Z,7.10
2018-08-18T07:16:48.425Z,6.97
2018-08-18T07:17:22.513Z,6.30
2018-08-18T07:17:56.745Z,7.23
2018-08-18T07:18:30.978Z,6.20
2018-08-18T07:19:05.741Z,6.53
2018-08-18T07:19:39.667Z,7.07
2018-08-18T07:20:13.811Z,6.93
2018-08-18T07:20:47.555Z,7.43
2018-08-18T07:21:21.324Z,5.97
2018-08-18T07:21:55.481Z,6.53
2018-08-18T07:22:29.958Z,6.60
2018-08-18T07:23:04.009Z,6.40
2018-08-18T07:23:38.049Z,6.23
2018-08-18T07:24:11.737Z,6.40
2018-08-18T07:24:45.582Z,6.80
2018-08-18T07:25:19.895Z,5.67
2018-08-18T07:25:56.591Z,6.07
2018-08-18T07:26:30.427Z,6.25
2018-08-18T07:27:04.548Z,5.72
2018-08-18T07:27:38.960Z,6.15
2018-08-18T07:28:13.025Z,6.73
2018-08-18T07:28:46.874Z,5.80
2018-08-18T07:29:20.495Z,6.17
2018-08-18T07:29:54.323Z,6.60
2018-08-18T07:30:29.276Z,6.45
2018-08-18T07:31:03.144Z,6.67
2018-08-18T07:31:37.012Z,7.37
2018-08-18T07:32:10.783Z,6.72
2018-08-18T07:32:44.648Z,6.62
2018-08-18T07:33:18.630Z,6.47
2018-08-18T07:33:52.716Z,6.40
2018-08-18T07:34:26.633Z,5.92
2018-08-18T07:35:00.515Z,7.25
2018-08-18T07:35:34.291Z,6.35
2018-08-18T07:36:08.056Z,6.50
2018-08-18T07:36:41.999Z,6.40
2018-08-18T07:37:16.046Z,6.55
2018-08-18T07:37:49.814Z,6.53
2018-08-18T07:38:23.615Z,6.67
2018-08-18T07:38:58.452Z,6.22
2018-08-18T07:39:32.426Z,6.25
2018-08-18T07:40:07.508Z,6.00
2018-08-18T07:40:42.220Z,6.37
2018-08-18T07:41:16.135Z,5.78
2018-08-18T07:41:49.989Z,6.10
2018-08-18T07:42:23.918Z,6.97
2018-08-18T07:43:01.931Z,6.83
2018-08-18T07:43:35.736Z,5.92
2018-08-18T07:44:09.784Z,5.90
2018-08-18T07:44:43.684Z,6.12
2018-08-18T07:46:00.228Z,6.37
2018-08-18T07:46:34.434Z,6.20
2018-08-18T07:47:08.276Z,6.40
2018-08-18T07:47:42.134Z,6.78
2018-08-18T07:48:16.579Z,6.22
2018-08-18T07:48:50.980Z,6.45
2018-08-18T07:49:24.829Z,6.50
2018-08-18T07:50:00.053Z,6.05
2018-08-18T07:50:35.451Z,5.72
2018-08-18T07:51:13.242Z,5.50
2018-08-18T07:51:47.646Z,6.05
2018-08-18T07:52:21.683Z,6.67
2018-08-18T07:52:55.820Z,5.72
2018-08-18T07:53:30.525Z,6.22
2018-08-18T07:54:04.678Z,5.50
2018-08-18T07:54:38.703Z,6.53
2018-08-18T07:55:13.140Z,5.72
2018-08-18T07:55:47.354Z,5.40
2018-08-18T07:56:21.077Z,5.60
2018-08-18T07:56:54.820Z,6.15
2018-08-18T07:57:29.389Z,5.70
2018-08-18T07:58:06.755Z,5.67
2018-08-18T07:58:40.656Z,5.90
2018-08-18T07:59:14.528Z,5.08
2018-08-18T07:59:48.530Z,5.00
2018-08-18T08:00:22.217Z,4.75
2018-08-18T08:00:57.524Z,5.10
2018-08-18T08:01:31.369Z,5.08
2018-08-18T08:02:05.536Z,5.80
2018-08-18T08:02:39.459Z,4.58
2018-08-18T08:03:14.346Z,4.83
2018-08-18T08:03:48.390Z,5.10
2018-08-18T08:04:22.147Z,4.97
2018-08-18T08:04:56.480Z,4.97
2018-08-18T08:05:31.156Z,5.40
2018-08-18T08:06:05.296Z,5.17
2018-08-18T08:06:39.499Z,5.35
2018-08-18T08:07:13.283Z,5.30
2018-08-18T08:07:47.006Z,5.25
2018-08-18T08:08:20.915Z,5.03
2018-08-18T08:08:54.979Z,5.30
2018-08-18T08:09:29.136Z,5.05
2018-08-18T08:10:03.298Z,5.35
2018-08-18T08:10:37.319Z,5.40
2018-08-18T08:11:14.151Z,5.70
2018-08-18T08:11:48.418Z,4.83
2018-08-18T08:12:22.272Z,5.53
2018-08-18T08:12:56.915Z,4.97
2018-08-18T08:13:30.547Z,5.87
2018-08-18T08:14:04.939Z,5.65
2018-08-18T08:14:38.814Z,4.90
2018-08-18T08:15:16.903Z,5.03
2018-08-18T08:15:50.887Z,5.28
2018-08-18T08:16:24.865Z,5.10
2018-08-18T08:16:58.801Z,4.90
2018-08-18T08:17:32.917Z,5.08
2018-08-18T08:18:08.075Z,5.00
2018-08-18T08:18:41.824Z,4.67
2018-08-18T08:19:15.519Z,5.17
2018-08-18T08:19:51.481Z,5.37
2018-08-18T08:20:34.359Z,4.62
2018-08-18T08:21:09.572Z,4.65
2018-08-18T08:21:43.420Z,4.65
2018-08-18T08:22:17.337Z,4.47
2018-08-18T08:22:52.758Z,4.45
2018-08-18T08:23:26.627Z,4.72
2018-08-18T08:24:01.068Z,4.75
2018-08-18T08:24:35.415Z,4.30
2018-08-18T08:25:10.073Z,4.58
2018-08-18T08:25:43.910Z,4.60
2018-08-18T08:26:17.663Z,4.60
2018-08-18T08:26:51.416Z,4.60
2018-08-18T08:27:25.217Z,4.10
2018-08-18T08:27:59.490Z,3.98
2018-08-18T08:28:33.510Z,4.08
2018-08-18T08:29:14.211Z,4.10
2018-08-18T08:29:48.157Z,4.35
2018-08-18T08:30:23.628Z,4.65
2018-08-18T08:30:57.712Z,4.50
2018-08-18T08:31:32.115Z,4.58
2018-08-18T08:32:08.835Z,4.62
2018-08-18T08:32:44.472Z,4.45
2018-08-18T08:33:35.474Z,4.62
2018-08-18T08:34:12.191Z,5.05
2018-08-18T08:34:50.742Z,5.17
2018-08-18T08:35:24.563Z,4.47
2018-08-18T08:36:01.679Z,5.50
2018-08-18T08:36:38.768Z,4.83
2018-08-18T08:37:24.419Z,4.40
2018-08-18T08:38:02.608Z,5.08
2018-08-18T08:38:52.213Z,4.25
2018-08-18T08:39:27.730Z,4.65
2018-08-18T08:40:02.188Z,4.20
2018-08-18T08:40:36.351Z,4.58
2018-08-18T08:41:12.178Z,3.80
2018-08-18T08:41:47.333Z,3.72
2018-08-18T08:42:21.728Z,4.12
2018-08-18T08:42:56.192Z,3.85
2018-08-18T08:43:35.012Z,3.65
2018-08-18T08:44:11.722Z,4.50
2018-08-18T08:44:46.783Z,4.28
2018-08-18T08:45:22.459Z,4.33
2018-08-18T08:45:56.436Z,4.17
2018-08-18T08:46:30.371Z,4.65
2018-08-18T08:47:06.462Z,4.60
2018-08-18T08:47:40.920Z,4.20
2018-08-18T08:48:14.997Z,4.62
2018-08-18T08:48:56.111Z,4.08
2018-08-18T08:49:30.092Z,3.85
2018-08-18T08:50:05.342Z,4.30
2018-08-18T08:50:39.580Z,3.80
2018-08-18T08:51:13.847Z,4.20
2018-08-18T08:51:47.788Z,4.20
2018-08-18T08:52:22.024Z,4.22
2018-08-18T08:52:56.992Z,4.30
2018-08-18T08:53:31.119Z,3.87
2018-08-18T08:54:05.188Z,3.70
2018-08-18T08:54:39.858Z,4.12
2018-08-18T08:55:14.568Z,4.33
2018-08-18T08:55:48.462Z,3.60
2018-08-18T08:56:27.213Z,3.67
2018-08-18T08:57:02.880Z,3.50
2018-08-18T08:57:36.834Z,3.70
2018-08-18T08:58:11.376Z,3.50
2018-08-18T08:58:49.518Z,3.52
2018-08-18T08:59:23.280Z,3.33
2018-08-18T08:59:57.130Z,3.35
2018-08-18T09:00:30.980Z,3.62
2018-08-18T09:01:05.059Z,3.37
2018-08-18T09:01:38.860Z,3.65
2018-08-18T09:02:14.148Z,3.65
2018-08-18T09:02:48.125Z,3.58
2018-08-18T09:03:22.287Z,3.20
2018-08-18T09:03:56.259Z,2.98
2018-08-18T09:04:31.460Z,3.90
2018-08-18T09:05:06.790Z,3.60
2018-08-18T09:05:41.241Z,3.42
2018-08-18T09:06:17.437Z,3.30
2018-08-18T09:06:54.331Z,3.10
2018-08-18T09:07:28.592Z,3.00
2018-08-18T09:08:02.543Z,2.83
2018-08-18T09:08:36.588Z,2.80
2018-08-18T09:09:10.608Z,2.55
2018-08-18T09:09:45.090Z,2.75
2018-08-18T09:10:19.253Z,2.77
2018-08-18T09:10:53.849Z,3.17
2018-08-18T09:11:30.131Z,3.30
2018-08-18T09:12:05.356Z,2.90
2018-08-18T09:12:39.382Z,3.58
2018-08-18T09:13:13.209Z,3.27
2018-08-18T09:13:59.536Z,3.15
2018-08-18T09:14:33.651Z,2.75
2018-08-18T09:15:08.784Z,3.20
2018-08-18T09:15:43.907Z,3.22
2018-08-18T09:16:17.849Z,3.33
2018-08-18T09:16:52.388Z,3.50
2018-08-18T09:17:26.268Z,3.45
2018-08-18T09:18:00.051Z,2.80
2018-08-18T09:18:34.324Z,2.90
2018-08-18T09:19:08.144Z,2.92
2018-08-18T09:19:42.227Z,3.15
2018-08-18T09:20:18.194Z,2.83
2018-08-18T09:20:52.207Z,2.92
2018-08-18T09:21:27.817Z,3.02
2018-08-18T09:22:02.970Z,2.80
2018-08-18T09:22:49.489Z,3.15
2018-08-18T09:23:23.620Z,3.30
2018-08-18T09:23:57.427Z,3.58
2018-08-18T09:24:32.019Z,3.33
2018-08-18T09:25:10.762Z,3.33
2018-08-18T09:25:45.125Z,3.37
2018-08-18T09:26:19.447Z,3.22
2018-08-18T09:26:54.753Z,3.33
2018-08-18T09:27:28.670Z,3.02
2018-08-18T09:28:03.066Z,3.40
2018-08-18T09:28:36.894Z,3.40
2018-08-18T09:29:11.559Z,3.02
2018-08-18T09:29:46.885Z,3.25
2018-08-18T09:30:21.457Z,3.55
2018-08-18T09:30:55.265Z,3.20
2018-08-18T09:31:29.332Z,3.50
2018-08-18T09:32:03.204Z,3.50
2018-08-18T09:32:37.473Z,3.12
2018-08-18T09:33:11.573Z,3.08
2018-08-18T09:33:46.219Z,2.83
2018-08-18T09:34:20.546Z,3.52
2018-08-18T09:34:54.634Z,3.25
2018-08-18T09:35:28.579Z,3.35
2018-08-18T09:36:04.111Z,3.30
2018-08-18T09:36:38.089Z,3.25
2018-08-18T09:37:11.928Z,3.37
2018-08-18T09:37:53.300Z,3.20
2018-08-18T09:38:27.322Z,3.50
2018-08-18T09:39:01.200Z,4.08
2018-08-18T09:39:35.227Z,3.45
2018-08-18T09:40:09.483Z,3.60
2018-08-18T09:40:43.847Z,4.58
2018-08-18T09:41:18.009Z,4.00
2018-08-18T09:41:52.340Z,3.70
2018-08-18T09:42:26.615Z,3.42
2018-08-18T09:43:08.527Z,3.22
2018-08-18T09:43:42.245Z,2.98
2018-08-18T09:44:21.885Z,4.17
2018-08-18T09:44:55.823Z,3.65
2018-08-18T09:45:29.692Z,2.95
2018-08-18T09:46:03.500Z,3.80
2018-08-18T09:46:37.431Z,3.62
2018-08-18T09:47:11.860Z,3.95
2018-08-18T09:47:45.682Z,3.70
2018-08-18T09:48:19.567Z,3.75
2018-08-18T09:48:53.818Z,3.52
2018-08-18T09:49:29.145Z,3.47
2018-08-18T09:50:03.151Z,3.02
2018-08-18T09:50:37.129Z,3.33
2018-08-18T09:51:11.174Z,3.40
2018-08-18T09:51:45.298Z,3.10
2018-08-18T09:52:20.068Z,2.95
2018-08-18T09:52:54.575Z,2.98
2018-08-18T09:53:28.939Z,2.65
2018-08-18T09:54:02.955Z,2.85
2018-08-18T09:54:36.965Z,2.65
2018-08-18T09:55:11.214Z,2.95
2018-08-18T09:55:45.473Z,2.85
2018-08-18T09:56:19.558Z,2.70
2018-08-18T09:56:55.463Z,3.62
2018-08-18T09:57:29.776Z,3.20
2018-08-18T09:58:03.916Z,2.90
2018-08-18T09:58:37.821Z,3.00
2018-08-18T09:59:11.661Z,2.90
2018-08-18T09:59:45.375Z,2.62
2018-08-18T10:00:23.956Z,2.60
2018-08-18T10:00:58.038Z,2.35
2018-08-18T10:01:32.776Z,2.35
2018-08-18T10:02:07.614Z,2.70
2018-08-18T10:02:41.949Z,2.40
2018-08-18T10:03:15.789Z,2.58
2018-08-18T10:03:49.976Z,2.67
2018-08-18T10:04:24.065Z,3.50
2018-08-18T10:04:58.468Z,3.52
2018-08-18T10:05:32.495Z,3.35
2018-08-18T10:06:06.420Z,3.45
2018-08-18T10:06:40.408Z,4.20
2018-08-18T10:07:14.233Z,4.35
2018-08-18T10:07:47.993Z,4.30
2018-08-18T10:08:22.096Z,3.80
2018-08-18T10:08:56.235Z,4.12
2018-08-18T10:09:30.291Z,3.22
2018-08-18T10:10:05.432Z,3.05
2018-08-18T10:10:39.573Z,3.95
2018-08-18T10:11:13.427Z,3.55
2018-08-18T10:11:47.247Z,3.80
2018-08-18T10:12:21.372Z,3.50
2018-08-18T10:12:55.467Z,3.50
2018-08-18T10:13:29.416Z,3.65
2018-08-18T10:14:03.511Z,3.00
2018-08-18T10:14:37.443Z,3.40
2018-08-18T10:15:11.753Z,3.65
2018-08-18T10:15:45.616Z,4.10
2018-08-18T10:16:19.640Z,3.98
2018-08-18T10:16:53.690Z,3.55
2018-08-18T10:17:27.703Z,3.62
2018-08-18T10:18:01.629Z,4.10
2018-08-18T10:18:40.207Z,3.40
2018-08-18T10:19:14.124Z,3.45
2018-08-18T10:19:47.972Z,4.20
2018-08-18T10:20:21.995Z,3.80
2018-08-18T10:20:55.853Z,4.65
2018-08-18T10:21:29.944Z,4.37
2018-08-18T10:22:05.652Z,4.08
2018-08-18T10:22:39.615Z,3.58
2018-08-18T10:23:13.381Z,3.90
2018-08-18T10:23:47.418Z,3.67
2018-08-18T10:24:21.362Z,3.62
2018-08-18T10:24:55.432Z,4.12
2018-08-18T10:25:30.010Z,4.78
2018-08-18T10:26:03.921Z,4.20
2018-08-18T10:26:38.413Z,4.42
2018-08-18T10:27:12.537Z,4.58
2018-08-18T10:27:48.350Z,3.77
2018-08-18T10:28:22.388Z,3.25
2018-08-18T10:29:11.920Z,3.90
2018-08-18T10:29:46.146Z,3.90
2018-08-18T10:30:19.915Z,3.65
2018-08-18T10:30:53.826Z,3.20
2018-08-18T10:31:27.977Z,3.50
2018-08-18T10:32:01.893Z,3.83
2018-08-18T10:32:44.240Z,3.75
2018-08-18T10:33:18.110Z,3.70
2018-08-18T10:33:52.213Z,3.37
2018-08-18T10:34:28.154Z,3.87
2018-08-18T10:35:01.891Z,4.20
2018-08-18T10:35:35.853Z,4.53
2018-08-18T10:36:09.795Z,4.53
2018-08-18T10:36:47.457Z,3.98
2018-08-18T10:37:21.461Z,3.83
2018-08-18T10:37:55.369Z,3.50
2018-08-18T10:38:29.320Z,4.65
2018-08-18T10:39:04.667Z,4.05
2018-08-18T10:39:38.584Z,4.00
2018-08-18T10:40:12.627Z,3.55
2018-08-18T10:40:47.497Z,3.90
2018-08-18T10:41:21.581Z,4.65
2018-08-18T10:42:08.270Z,4.58
2018-08-18T10:42:41.989Z,4.25
2018-08-18T10:43:16.108Z,5.37
2018-08-18T10:43:50.021Z,4.15
2018-08-18T10:44:24.799Z,4.50
2018-08-18T10:45:00.462Z,5.00
2018-08-18T10:45:35.192Z,3.92
2018-08-18T10:46:08.977Z,3.87
2018-08-18T10:46:42.950Z,4.50
2018-08-18T10:47:18.366Z,4.30
2018-08-18T10:47:52.284Z,4.42
2018-08-18T10:48:26.486Z,4.95
2018-08-18T10:49:00.825Z,4.50
2018-08-18T10:49:46.477Z,3.65
2018-08-18T10:51:34.540Z,5.12
2018-08-18T10:52:19.738Z,3.22
2018-08-18T10:52:56.859Z,3.83
2018-08-18T10:53:30.980Z,4.17
2018-08-18T10:54:05.021Z,4.22
2018-08-18T10:54:39.011Z,4.83
2018-08-18T10:55:14.125Z,4.97
2018-08-18T10:55:48.023Z,4.80